createdAt,value
2022-08-29T00:02:32.603Z,3.30
2022-08-29T00:05:36.945Z,2.97
2022-08-29T00:08:39.610Z,1.92
2022-08-29T00:11:45.155Z,3.80
2022-08-29T00:14:48.384Z,3.28
2022-08-29T00:17:50.225Z,2.45
2022-08-29T00:20:52.021Z,3.40
2022-08-29T00:23:53.675Z,4.57
2022-08-29T00:26:55.302Z,3.90
2022-08-29T00:29:57.017Z,2.83
2022-08-29T00:32:58.609Z,1.88
2022-08-29T00:36:00.221Z,4.00
2022-08-29T00:39:04.830Z,2.92
2022-08-29T00:42:10.927Z,3.33
2022-08-29T00:45:13.887Z,3.75
2022-08-29T00:48:16.079Z,2.78
2022-08-29T00:51:20.283Z,3.70
2022-08-29T00:54:23.010Z,3.35
2022-08-29T00:57:28.601Z,2.90
2022-08-29T01:00:31.036Z,5.07
2022-08-29T01:03:34.443Z,3.33
2022-08-29T01:06:37.588Z,2.85
2022-08-29T01:12:41.479Z,3.13
2022-08-29T01:15:44.164Z,4.68
2022-08-29T01:18:48.660Z,2.88
2022-08-29T01:21:55.075Z,4.28
2022-08-29T01:24:58.681Z,2.75
2022-08-29T01:28:06.423Z,2.80
2022-08-29T01:31:15.055Z,3.20
2022-08-29T01:34:36.621Z,2.33
2022-08-29T01:37:41.084Z,3.13
2022-08-29T01:40:42.695Z,5.30
2022-08-29T01:43:48.689Z,4.10
2022-08-29T01:46:52.564Z,4.07
2022-08-29T01:49:54.259Z,3.58
2022-08-29T01:52:55.850Z,3.17
2022-08-29T01:55:57.464Z,3.30
2022-08-29T01:59:01.598Z,3.20
2022-08-29T02:02:26.485Z,4.55
2022-08-29T02:05:30.162Z,3.40
2022-08-29T02:08:31.986Z,2.60
2022-08-29T02:11:36.469Z,3.95
2022-08-29T02:14:38.105Z,4.18
2022-08-29T02:17:39.927Z,3.55
2022-08-29T02:20:41.525Z,4.35
2022-08-29T02:23:43.343Z,4.70
2022-08-29T02:26:45.030Z,2.70
2022-08-29T02:29:46.623Z,3.38
2022-08-29T02:32:48.687Z,2.35
2022-08-29T02:35:50.602Z,5.25
2022-08-29T02:38:52.252Z,3.97
2022-08-29T02:41:54.035Z,2.45
2022-08-29T02:44:55.611Z,2.33
2022-08-29T02:47:58.581Z,2.65
2022-08-29T02:51:00.342Z,4.25
2022-08-29T02:54:02.239Z,3.58
2022-08-29T02:57:05.228Z,3.00
2022-08-29T03:00:09.749Z,2.90
2022-08-29T03:03:11.650Z,5.68
2022-08-29T03:06:13.322Z,4.13
2022-08-29T03:09:14.966Z,3.08
2022-08-29T03:12:16.622Z,4.32
2022-08-29T03:15:18.316Z,4.00
2022-08-29T03:18:20.044Z,3.08
2022-08-29T03:21:26.381Z,3.97
2022-08-29T03:24:28.600Z,4.03
2022-08-29T03:27:33.822Z,2.90
2022-08-29T03:30:35.454Z,4.00
2022-08-29T03:33:37.899Z,3.08
2022-08-29T03:36:39.561Z,3.03
2022-08-29T03:39:41.262Z,2.63
2022-08-29T03:42:43.042Z,2.80
2022-08-29T03:45:44.762Z,3.25
2022-08-29T03:48:46.698Z,5.35
2022-08-29T03:51:50.035Z,1.88
2022-08-29T03:54:51.638Z,3.83
2022-08-29T03:57:55.677Z,3.38
2022-08-29T04:00:57.267Z,3.15
2022-08-29T04:03:58.912Z,3.97
2022-08-29T04:07:01.825Z,4.00
2022-08-29T04:10:08.149Z,4.93
2022-08-29T04:13:09.791Z,4.50
2022-08-29T04:16:13.711Z,2.40
2022-08-29T04:19:17.068Z,3.95
2022-08-29T04:22:18.906Z,4.22
2022-08-29T04:25:21.864Z,3.22
2022-08-29T04:28:23.776Z,5.15
2022-08-29T04:31:25.493Z,3.00
2022-08-29T04:34:27.876Z,3.47
2022-08-29T04:37:29.754Z,5.73
2022-08-29T04:40:31.647Z,3.10
2022-08-29T04:43:34.275Z,3.88
2022-08-29T04:46:35.981Z,4.25
2022-08-29T04:49:37.679Z,3.13
2022-08-29T04:52:40.260Z,5.28
2022-08-29T04:55:41.907Z,3.25
2022-08-29T04:58:47.278Z,5.45
2022-08-29T05:01:49.013Z,5.97
2022-08-29T05:04:52.729Z,3.45
2022-08-29T05:07:55.106Z,6.97
2022-08-29T05:10:56.704Z,6.83
2022-08-29T05:14:00.217Z,3.90
2022-08-29T05:17:01.806Z,3.70
2022-08-29T05:20:06.049Z,4.88
2022-08-29T05:23:07.931Z,4.88
2022-08-29T05:26:09.602Z,3.78
2022-08-29T05:29:13.233Z,5.13
2022-08-29T05:32:15.947Z,4.60
2022-08-29T05:35:18.075Z,4.90
2022-08-29T05:38:19.907Z,3.97
2022-08-29T05:41:21.565Z,5.93
2022-08-29T05:44:23.615Z,4.68
2022-08-29T05:47:25.478Z,6.57
2022-08-29T05:50:27.096Z,7.45
2022-08-29T05:53:28.967Z,8.25
2022-08-29T05:56:31.329Z,5.13
2022-08-29T05:59:33.089Z,9.20
2022-08-29T06:02:34.884Z,5.00
2022-08-29T06:05:37.044Z,4.22
2022-08-29T06:08:38.674Z,5.93
2022-08-29T06:11:40.506Z,5.57
2022-08-29T06:14:42.417Z,9.50
2022-08-29T06:17:52.634Z,6.43
2022-08-29T06:20:54.207Z,3.42
2022-08-29T06:23:56.019Z,10.32
2022-08-29T06:26:59.089Z,9.65
2022-08-29T06:30:02.064Z,9.32
2022-08-29T06:33:03.996Z,9.30
2022-08-29T06:36:07.259Z,12.05
2022-08-29T06:39:10.669Z,17.02
2022-08-29T06:42:12.249Z,10.15
2022-08-29T06:45:15.144Z,13.25
2022-08-29T06:48:16.812Z,6.45
2022-08-29T06:51:18.813Z,7.03
2022-08-29T06:54:24.279Z,10.48
2022-08-29T06:57:29.640Z,10.43
2022-08-29T07:00:31.431Z,10.15
2022-08-29T07:03:33.071Z,19.38
2022-08-29T07:06:36.864Z,12.95
2022-08-29T07:09:38.564Z,17.42
2022-08-29T07:12:40.963Z,9.77
2022-08-29T07:15:42.763Z,10.68
2022-08-29T07:18:45.971Z,12.60
2022-08-29T07:21:49.223Z,9.52
2022-08-29T07:24:50.913Z,8.02
2022-08-29T07:27:53.511Z,10.63
2022-08-29T07:30:55.316Z,10.00
2022-08-29T07:34:02.778Z,13.68
2022-08-29T07:37:05.849Z,9.10
2022-08-29T07:43:11.100Z,9.43
2022-08-29T07:46:15.531Z,6.65
2022-08-29T07:49:17.247Z,11.70
2022-08-29T07:52:19.158Z,10.00
2022-08-29T07:55:22.004Z,5.95
2022-08-29T07:58:24.375Z,6.70
2022-08-29T08:01:27.028Z,7.78
2022-08-29T08:04:28.669Z,4.65
2022-08-29T08:07:32.965Z,7.00
2022-08-29T08:10:35.043Z,8.00
2022-08-29T08:13:37.767Z,11.68
2022-08-29T08:16:44.304Z,11.18
2022-08-29T08:19:46.359Z,8.05
2022-08-29T08:22:47.971Z,7.75
2022-08-29T08:25:49.581Z,6.10
2022-08-29T08:28:53.293Z,7.82
2022-08-29T08:31:59.779Z,10.30
2022-08-29T08:35:01.845Z,6.53
2022-08-29T08:38:03.883Z,7.43
2022-08-29T08:41:39.331Z,5.93
2022-08-29T08:45:04.261Z,6.70
2022-08-29T08:48:28.588Z,5.93
2022-08-29T08:51:35.032Z,6.72
2022-08-29T08:54:47.039Z,5.90
2022-08-29T08:57:59.338Z,7.38
2022-08-29T09:01:11.121Z,8.30
2022-08-29T09:04:40.605Z,6.78
2022-08-29T09:07:53.075Z,5.68
2022-08-29T09:11:03.832Z,4.85
2022-08-29T09:14:24.488Z,5.68
2022-08-29T09:18:02.790Z,7.47
2022-08-29T09:21:37.079Z,5.57
2022-08-29T09:24:57.407Z,3.97
2022-08-29T09:27:59.367Z,5.53
2022-08-29T09:31:24.198Z,9.38
2022-08-29T09:35:04.529Z,5.35
2022-08-29T09:38:05.884Z,6.60
2022-08-29T09:41:10.559Z,5.40
2022-08-29T09:44:27.781Z,5.90
2022-08-29T09:47:32.938Z,5.45
2022-08-29T09:50:34.900Z,6.15
2022-08-29T09:53:36.641Z,5.95
2022-08-29T09:56:48.303Z,4.65
2022-08-29T10:00:10.821Z,6.88
2022-08-29T10:03:21.518Z,6.40
2022-08-29T10:06:27.897Z,4.72
2022-08-29T10:09:29.583Z,8.55
2022-08-29T10:12:38.546Z,4.70
2022-08-29T10:15:50.532Z,5.43
2022-08-29T10:22:07.876Z,7.03
2022-08-29T10:25:27.689Z,5.00
2022-08-29T10:28:41.518Z,6.13
2022-08-29T10:32:03.477Z,5.65
2022-08-29T10:35:16.991Z,5.65
2022-08-29T10:38:36.861Z,6.40
2022-08-29T10:41:58.247Z,6.10
2022-08-29T10:45:18.366Z,7.72
2022-08-29T10:48:26.527Z,4.90
2022-08-29T10:51:41.463Z,5.13
2022-08-29T10:54:58.383Z,4.43
2022-08-29T10:58:03.320Z,5.65
2022-08-29T11:01:42.149Z,16.65
2022-08-29T11:04:50.842Z,12.63
2022-08-29T11:08:01.802Z,7.07
2022-08-29T11:11:04.086Z,3.80
2022-08-29T11:14:20.638Z,6.68
2022-08-29T11:17:26.229Z,2.55
2022-08-29T11:20:32.315Z,8.15
2022-08-29T11:23:41.065Z,5.78
2022-08-29T11:26:45.516Z,4.80
2022-08-29T11:30:05.265Z,4.60
2022-08-29T11:33:28.789Z,3.33
2022-08-29T11:37:00.563Z,5.55
2022-08-29T11:40:10.147Z,3.10
2022-08-29T11:43:17.864Z,2.88
2022-08-29T11:46:37.800Z,4.45
2022-08-29T11:49:43.756Z,3.35
2022-08-29T11:53:02.794Z,4.95
2022-08-29T11:56:27.927Z,3.13
2022-08-29T11:59:56.832Z,4.63
2022-08-29T12:02:59.334Z,4.82
2022-08-29T12:06:28.886Z,3.30
2022-08-29T12:09:45.347Z,3.92
2022-08-29T12:13:04.314Z,2.92
2022-08-29T12:16:11.534Z,4.75
2022-08-29T12:19:52.000Z,5.40
2022-08-29T12:22:53.990Z,3.97
2022-08-29T12:26:21.598Z,4.35
2022-08-29T12:29:28.144Z,4.35
2022-08-29T12:32:40.970Z,2.88
2022-08-29T12:36:07.482Z,2.85
2022-08-29T12:39:30.537Z,5.97
2022-08-29T12:43:02.826Z,2.85
2022-08-29T12:46:22.274Z,1.92
2022-08-29T12:49:53.096Z,4.63
2022-08-29T12:53:15.258Z,3.78
2022-08-29T12:56:22.148Z,2.83
2022-08-29T12:59:25.035Z,4.47
2022-08-29T13:02:33.241Z,3.58
2022-08-29T13:05:39.348Z,3.97
2022-08-29T13:08:41.313Z,1.80
2022-08-29T13:14:56.584Z,2.70
2022-08-29T13:17:58.377Z,3.88
2022-08-29T13:21:12.190Z,3.58
2022-08-29T13:24:21.256Z,3.00
2022-08-29T13:27:23.485Z,3.50
2022-08-29T13:30:26.295Z,4.47
2022-08-29T13:33:35.272Z,1.70
2022-08-29T13:37:00.977Z,5.65
2022-08-29T13:40:32.721Z,2.70
2022-08-29T13:43:39.610Z,3.85
2022-08-29T13:46:47.102Z,2.42
2022-08-29T13:49:50.066Z,4.70
2022-08-29T13:52:55.097Z,2.05
2022-08-29T13:55:57.370Z,3.35
2022-08-29T13:59:00.362Z,4.72
2022-08-29T14:02:10.746Z,2.40
2022-08-29T14:05:13.794Z,4.57
2022-08-29T14:08:15.784Z,3.65
2022-08-29T14:11:17.890Z,3.63
2022-08-29T14:14:19.999Z,3.40
2022-08-29T14:17:23.334Z,3.58
2022-08-29T14:20:25.542Z,3.60
2022-08-29T14:23:27.149Z,2.65
2022-08-29T14:26:29.379Z,5.10
2022-08-29T14:29:32.604Z,2.90
2022-08-29T14:32:35.964Z,3.58
2022-08-29T14:35:42.491Z,5.43
2022-08-29T14:38:45.688Z,3.20
2022-08-29T14:41:47.383Z,3.38
2022-08-29T14:44:49.477Z,6.53
2022-08-29T14:47:51.507Z,3.75
2022-08-29T14:50:53.404Z,2.28
2022-08-29T14:53:56.052Z,3.97
2022-08-29T14:56:58.032Z,3.05
2022-08-29T15:00:00.017Z,3.13
2022-08-29T15:06:06.077Z,3.03
2022-08-29T15:09:07.933Z,2.63
2022-08-29T15:12:11.645Z,3.03
2022-08-29T15:15:13.780Z,2.15
2022-08-29T15:21:40.204Z,1.95
2022-08-29T15:24:42.065Z,3.10
2022-08-29T15:27:43.916Z,3.67
2022-08-29T15:30:47.484Z,2.60
2022-08-29T15:33:49.438Z,2.90
2022-08-29T15:36:51.998Z,2.53
2022-08-29T15:39:55.196Z,2.28
2022-08-29T15:42:56.983Z,3.40
2022-08-29T15:45:59.840Z,4.70
2022-08-29T15:49:02.055Z,3.38
2022-08-29T15:52:03.979Z,3.75
2022-08-29T15:55:07.265Z,4.80
2022-08-29T15:58:09.040Z,3.28
2022-08-29T16:01:11.116Z,5.32
2022-08-29T16:07:17.750Z,4.03
2022-08-29T16:10:19.540Z,4.57
2022-08-29T16:13:22.264Z,4.35
2022-08-29T16:16:24.852Z,6.63
2022-08-29T16:19:26.662Z,4.45
2022-08-29T16:22:29.064Z,2.55
2022-08-29T16:25:31.924Z,4.07
2022-08-29T16:28:34.543Z,4.30
2022-08-29T16:31:37.111Z,4.57
2022-08-29T16:34:38.859Z,4.90
2022-08-29T16:37:40.483Z,4.63
2022-08-29T16:40:42.299Z,3.97
2022-08-29T16:43:45.315Z,4.50
2022-08-29T16:46:47.058Z,4.25
2022-08-29T16:49:48.894Z,8.05
2022-08-29T16:52:50.569Z,4.68
2022-08-29T16:55:52.389Z,4.57
2022-08-29T16:59:00.235Z,4.60
2022-08-29T17:02:02.793Z,4.85
2022-08-29T17:05:05.547Z,5.25
2022-08-29T17:08:07.200Z,5.10
2022-08-29T17:11:11.312Z,3.20
2022-08-29T17:14:14.417Z,5.15
2022-08-29T17:17:16.554Z,5.60
2022-08-29T17:20:20.304Z,4.35
2022-08-29T17:23:22.413Z,5.88
2022-08-29T17:26:25.062Z,4.57
2022-08-29T17:29:26.841Z,5.32
2022-08-29T17:32:28.705Z,3.27
2022-08-29T17:35:31.280Z,3.00
2022-08-29T17:41:37.210Z,3.38
2022-08-29T17:44:39.164Z,4.05
2022-08-29T17:47:41.349Z,4.72
2022-08-29T17:50:43.744Z,2.55
2022-08-29T17:53:45.743Z,3.47
2022-08-29T17:56:49.282Z,3.78
2022-08-29T17:59:51.336Z,2.75
2022-08-29T18:02:53.293Z,3.88
2022-08-29T18:05:54.984Z,6.57
2022-08-29T18:08:58.062Z,3.63
2022-08-29T18:11:59.783Z,6.03
2022-08-29T18:15:02.123Z,4.43
2022-08-29T18:18:04.334Z,2.70
2022-08-29T18:21:06.428Z,4.00
2022-08-29T18:24:08.993Z,4.28
2022-08-29T18:27:10.847Z,5.50
2022-08-29T18:30:15.791Z,7.07
2022-08-29T18:33:17.624Z,3.42
2022-08-29T18:36:19.967Z,5.77
2022-08-29T18:39:21.722Z,2.50
2022-08-29T18:42:39.546Z,6.25
2022-08-29T18:45:43.771Z,3.63
2022-08-29T18:48:46.347Z,3.80
2022-08-29T18:51:48.146Z,5.15
2022-08-29T18:54:49.875Z,3.38
2022-08-29T18:57:52.384Z,5.70
2022-08-29T19:00:54.470Z,6.95
2022-08-29T19:03:58.089Z,4.15
2022-08-29T19:06:59.835Z,4.55
2022-08-29T19:10:01.571Z,4.18
2022-08-29T19:13:03.427Z,6.25
2022-08-29T19:16:07.922Z,3.75
2022-08-29T19:19:13.506Z,4.20
2022-08-29T19:22:16.092Z,5.18
2022-08-29T19:25:18.305Z,6.45
2022-08-29T19:28:20.790Z,4.35
2022-08-29T19:31:22.799Z,3.35
2022-08-29T19:34:24.671Z,3.83
2022-08-29T19:37:27.037Z,5.80
2022-08-29T19:40:30.777Z,5.07
2022-08-29T19:43:35.419Z,3.92
2022-08-29T19:46:39.043Z,9.10
2022-08-29T19:49:45.466Z,3.28
2022-08-29T19:52:48.008Z,4.68
2022-08-29T19:55:49.621Z,4.10
2022-08-29T19:58:51.482Z,3.55
2022-08-29T20:01:53.512Z,4.15
2022-08-29T20:04:55.195Z,3.53
2022-08-29T20:07:57.698Z,2.65
2022-08-29T20:10:59.344Z,6.47
2022-08-29T20:14:01.014Z,4.53
2022-08-29T20:17:07.922Z,4.25
2022-08-29T20:20:15.696Z,5.45
2022-08-29T20:23:17.627Z,3.53
2022-08-29T20:26:22.738Z,5.30
2022-08-29T20:29:24.428Z,4.18
2022-08-29T20:32:28.931Z,6.35
2022-08-29T20:35:49.582Z,6.80
2022-08-29T20:38:51.176Z,3.40
2022-08-29T20:41:55.576Z,4.85
2022-08-29T20:44:57.893Z,4.32
2022-08-29T20:47:59.559Z,4.45
2022-08-29T20:51:04.565Z,4.50
2022-08-29T20:54:06.529Z,4.18
2022-08-29T20:57:10.187Z,4.30
2022-08-29T21:00:14.936Z,5.90
2022-08-29T21:03:35.172Z,3.47
2022-08-29T21:06:37.200Z,4.75
2022-08-29T21:09:45.867Z,5.95
2022-08-29T21:12:48.703Z,4.38
2022-08-29T21:15:50.833Z,4.50
2022-08-29T21:18:55.312Z,3.97
2022-08-29T21:21:58.681Z,5.45
2022-08-29T21:25:00.243Z,5.03
2022-08-29T21:28:03.370Z,3.78
2022-08-29T21:31:12.730Z,4.22
2022-08-29T21:34:14.586Z,4.53
2022-08-29T21:37:16.248Z,4.15
2022-08-29T21:40:25.579Z,6.63
2022-08-29T21:43:27.232Z,4.20
2022-08-29T21:46:32.035Z,5.43
2022-08-29T21:49:34.317Z,5.63
2022-08-29T21:52:35.946Z,3.87
2022-08-29T21:55:37.569Z,4.40
2022-08-29T21:58:39.641Z,4.22
2022-08-29T22:01:41.904Z,5.18
2022-08-29T22:04:43.526Z,5.80
2022-08-29T22:07:45.325Z,5.28
2022-08-29T22:10:48.069Z,3.17
2022-08-29T22:13:51.997Z,4.60
2022-08-29T22:16:54.786Z,4.63
2022-08-29T22:19:56.683Z,4.88
2022-08-29T22:22:58.976Z,5.25
2022-08-29T22:26:01.255Z,2.73
2022-08-29T22:29:03.535Z,4.23
2022-08-29T22:32:05.272Z,3.40
2022-08-29T22:35:08.571Z,5.13
2022-08-29T22:38:10.341Z,4.75
2022-08-29T22:41:15.332Z,4.60
2022-08-29T22:47:42.660Z,5.43
2022-08-29T22:50:57.980Z,3.80
2022-08-29T22:54:19.063Z,4.20
2022-08-29T22:57:21.003Z,3.25
2022-08-29T23:00:25.661Z,4.63
2022-08-29T23:03:27.458Z,7.53
2022-08-29T23:06:29.259Z,5.32
2022-08-29T23:09:35.310Z,3.60
2022-08-29T23:12:38.607Z,3.67
2022-08-29T23:15:40.223Z,4.25
2022-08-29T23:18:41.978Z,3.83
2022-08-29T23:21:43.863Z,3.90
2022-08-29T23:24:58.241Z,5.38
2022-08-29T23:28:01.144Z,3.60
2022-08-29T23:31:02.814Z,3.67
2022-08-29T23:34:04.477Z,3.25
2022-08-29T23:37:06.090Z,5.10
2022-08-29T23:40:08.104Z,5.57
2022-08-29T23:43:09.772Z,4.13
2022-08-29T23:46:11.969Z,6.40
2022-08-29T23:49:13.687Z,4.50
2022-08-29T23:52:15.383Z,4.38
2022-08-29T23:55:17.607Z,4.55
2022-08-29T23:58:19.451Z,5.33
